Time;durP1;ratioP1;P1;durP2;ratioP2;P2;SDS_P1;SDS_P2;PMS_P1;PMS_P2;Temp;Humidity;BMP_temperature;BMP_pressure;BME280_temperature;BME280_humidity;BME280_pressure;Samples;Min_cycle;Max_cycle;Signal;HPM_P1;HPM_P2
2022/09/08 00:00:23;;;;;;;589.33;521.27;;;;;;;;;;16890254;28;20247;-84
2022/09/08 00:08:45;;;;;;;584.90;512.27;;;;;;;;;;16891783;29;20181;-85
2022/09/08 00:17:05;;;;;;;600.13;533.33;;;;;;;;;;16892127;29;20213;-85
2022/09/08 00:25:26;;;;;;;594.30;512.50;;;;;;;;;;16892082;29;20205;-85
2022/09/08 00:33:47;;;;;;;595.33;520.30;;;;;;;;;;16889612;28;20213;-85
2022/09/08 00:42:07;;;;;;;598.17;501.57;;;;;;;;;;16889087;28;20564;-85
2022/09/08 00:50:28;;;;;;;595.07;490.83;;;;;;;;;;16890489;28;20236;-85
2022/09/08 00:58:49;;;;;;;590.13;485.47;;;;;;;;;;16889271;28;20325;-85
2022/09/08 01:15:59;;;;;;;587.93;464.87;;;;;;;;;;16888500;29;20281;-84
2022/09/08 01:24:27;;;;;;;603.17;474.77;;;;;;;;;;16887085;28;20205;-85
2022/09/08 01:32:48;;;;;;;591.87;450.57;;;;;;;;;;16890527;29;20181;-84
2022/09/08 01:41:08;;;;;;;594.70;456.73;;;;;;;;;;16887220;29;20237;-85
2022/09/08 01:49:29;;;;;;;589.97;437.07;;;;;;;;;;16887803;29;20236;-84
2022/09/08 01:57:49;;;;;;;594.30;455.87;;;;;;;;;;16885623;28;20484;-84
2022/09/08 02:06:10;;;;;;;580.73;434.97;;;;;;;;;;16885894;29;20217;-84
2022/09/08 02:14:30;;;;;;;577.63;428.27;;;;;;;;;;16885872;29;20176;-84
2022/09/08 02:22:54;;;;;;;579.87;447.40;;;;;;;;;;16885495;29;20201;-84
2022/09/08 02:31:14;;;;;;;575.80;423.10;;;;;;;;;;16885229;28;20173;-84
2022/09/08 02:39:34;;;;;;;575.60;418.23;;;;;;;;;;16885932;28;20181;-85
2022/09/08 02:47:55;;;;;;;585.47;415.20;;;;;;;;;;16884627;28;20217;-84
2022/09/08 02:56:15;;;;;;;572.70;410.20;;;;;;;;;;16884667;28;20261;-84
2022/09/08 03:04:35;;;;;;;565.47;400.63;;;;;;;;;;16884503;29;20208;-85
2022/09/08 03:12:56;;;;;;;576.23;413.47;;;;;;;;;;16889593;29;20169;-85
2022/09/08 03:21:16;;;;;;;567.23;398.27;;;;;;;;;;16893240;28;20201;-84
2022/09/08 03:29:36;;;;;;;561.60;387.30;;;;;;;;;;16894814;29;20661;-84
2022/09/08 03:37:57;;;;;;;561.10;391.00;;;;;;;;;;16893685;29;20235;-84
2022/09/08 03:46:17;;;;;;;558.53;381.27;;;;;;;;;;16892236;29;20209;-84
2022/09/08 03:54:51;;;;;;;563.83;383.93;;;;;;;;;;16892857;28;20523;-84
2022/09/08 04:03:11;;;;;;;568.87;385.43;;;;;;;;;;16892065;29;20650;-85
2022/09/08 04:11:32;;;;;;;562.33;376.37;;;;;;;;;;16890799;29;20173;-85
2022/09/08 04:19:52;;;;;;;573.00;385.23;;;;;;;;;;16892659;29;20212;-85
2022/09/08 04:28:13;;;;;;;575.13;384.10;;;;;;;;;;16889931;29;20189;-85
2022/09/08 04:36:33;;;;;;;575.67;383.97;;;;;;;;;;16889603;29;20174;-84
2022/09/08 04:44:54;;;;;;;594.00;423.63;;;;;;;;;;16889157;29;20661;-84
2022/09/08 04:53:14;;;;;;;606.57;461.57;;;;;;;;;;16889095;29;20635;-84
2022/09/08 05:01:37;;;;;;;620.83;517.50;;;;;;;;;;16886797;28;20244;-84
2022/09/08 05:09:58;;;;;;;911.27;826.77;;;;;;;;;;16888680;29;20648;-84
2022/09/08 05:18:18;;;;;;;1108.67;999.90;;;;;;;;;;16887356;28;20185;-86
2022/09/08 05:26:38;;;;;;;1187.00;999.90;;;;;;;;;;16888900;28;20638;-84
2022/09/08 05:34:59;;;;;;;1227.45;999.90;;;;;;;;;;16887645;28;20182;-85
2022/09/08 05:43:19;;;;;;;1235.60;999.90;;;;;;;;;;16887111;28;20213;-85
2022/09/08 05:51:40;;;;;;;1230.18;999.90;;;;;;;;;;16887547;29;20197;-85
2022/09/08 06:00:00;;;;;;;1182.38;999.90;;;;;;;;;;16885697;28;20268;-84
2022/09/08 06:08:22;;;;;;;1176.68;999.90;;;;;;;;;;16886114;29;20631;-84
2022/09/08 06:16:42;;;;;;;1129.25;999.90;;;;;;;;;;16885766;28;20434;-85
2022/09/08 06:25:03;;;;;;;1193.53;999.90;;;;;;;;;;16886424;28;20621;-85
2022/09/08 06:33:28;;;;;;;1153.97;999.90;;;;;;;;;;16884278;29;20264;-86
2022/09/08 06:41:51;;;;;;;1084.60;996.47;;;;;;;;;;16884253;29;20576;-86
2022/09/08 06:50:14;;;;;;;1102.10;999.90;;;;;;;;;;16894646;29;20203;-86
2022/09/08 06:58:36;;;;;;;999.58;919.63;;;;;;;;;;16895627;29;20229;-85
2022/09/08 07:07:04;;;;;;;1003.00;922.47;;;;;;;;;;16890315;28;20228;-84
2022/09/08 07:15:43;;;;;;;1164.88;999.90;;;;;;;;;;16893221;28;20181;-85
2022/09/08 07:24:04;;;;;;;1151.63;999.90;;;;;;;;;;16894837;29;20284;-84
2022/09/08 07:32:28;;;;;;;1125.13;999.90;;;;;;;;;;16893186;28;20575;-86
2022/09/08 07:40:51;;;;;;;1105.55;999.90;;;;;;;;;;16892176;28;20201;-85
2022/09/08 07:49:24;;;;;;;1123.15;999.90;;;;;;;;;;16893261;28;20268;-84
2022/09/08 07:58:04;;;;;;;1149.55;999.90;;;;;;;;;;16891064;28;20237;-84
2022/09/08 08:06:38;;;;;;;1126.85;999.90;;;;;;;;;;16891652;29;20220;-84
2022/09/08 08:15:01;;;;;;;1119.82;999.90;;;;;;;;;;16891000;29;20264;-85
2022/09/08 08:23:40;;;;;;;1118.93;999.90;;;;;;;;;;16890026;28;20292;-84
2022/09/08 08:32:11;;;;;;;1135.82;999.90;;;;;;;;;;16889702;29;20208;-83
2022/09/08 08:40:31;;;;;;;1112.10;999.90;;;;;;;;;;16888795;29;20201;-85
2022/09/08 08:49:15;;;;;;;1124.63;999.90;;;;;;;;;;16890814;28;20173;-84
2022/09/08 08:57:35;;;;;;;1096.23;999.90;;;;;;;;;;16887791;29;20233;-84
2022/09/08 09:06:05;;;;;;;1106.93;999.90;;;;;;;;;;16886203;29;20217;-84
2022/09/08 09:14:36;;;;;;;980.30;908.00;;;;;;;;;;16887183;29;20173;-84
2022/09/08 09:23:12;;;;;;;1033.17;957.37;;;;;;;;;;16887450;29;20201;-84
2022/09/08 09:31:53;;;;;;;1051.77;974.17;;;;;;;;;;16886748;29;20181;-83
2022/09/08 09:40:25;;;;;;;1041.57;965.30;;;;;;;;;;16887280;28;20300;-83
2022/09/08 09:49:06;;;;;;;1035.43;959.33;;;;;;;;;;16883616;28;20188;-84
2022/09/08 09:57:53;;;;;;;1045.63;968.63;;;;;;;;;;16880912;28;20600;-84
2022/09/08 10:06:36;;;;;;;1038.30;961.67;;;;;;;;;;16881992;28;20220;-84
2022/09/08 10:14:58;;;;;;;1048.10;970.03;;;;;;;;;;16887542;29;20189;-84
2022/09/08 10:23:24;;;;;;;1028.90;952.97;;;;;;;;;;16903436;28;20291;-84
2022/09/08 10:31:45;;;;;;;1033.67;957.23;;;;;;;;;;16906862;29;20177;-84
2022/09/08 10:40:14;;;;;;;1036.53;959.83;;;;;;;;;;16901829;29;20181;-84
2022/09/08 10:48:40;;;;;;;1014.10;938.93;;;;;;;;;;16905829;29;20157;-84
2022/09/08 10:57:16;;;;;;;992.87;919.17;;;;;;;;;;16905390;28;20236;-84
2022/09/08 11:05:42;;;;;;;1014.22;938.22;;;;;;;;;;16905251;29;20238;-84
2022/09/08 11:14:21;;;;;;;1007.30;931.50;;;;;;;;;;16904201;29;20654;-84
2022/09/08 11:22:55;;;;;;;1008.20;932.95;;;;;;;;;;16904863;28;20617;-84
2022/09/08 11:31:27;;;;;;;1016.90;940.80;;;;;;;;;;16898478;29;20182;-84
2022/09/08 11:40:06;;;;;;;1018.70;942.03;;;;;;;;;;16894281;29;20597;-84
2022/09/08 11:48:29;;;;;;;982.85;907.85;;;;;;;;;;16887204;28;20192;-83
2022/09/08 11:56:50;;;;;;;974.47;900.33;;;;;;;;;;16886857;28;20966;-83
2022/09/08 12:05:25;;;;;;;952.75;878.80;;;;;;;;;;16889831;29;20206;-84
2022/09/08 12:14:02;;;;;;;882.97;813.85;;;;;;;;;;16892718;29;20183;-84
2022/09/08 12:22:22;;;;;;;933.25;860.42;;;;;;;;;;16891417;29;20646;-84
2022/09/08 12:30:54;;;;;;;887.83;818.28;;;;;;;;;;16891085;28;20177;-84
2022/09/08 12:39:27;;;;;;;910.40;838.47;;;;;;;;;;16891194;29;20316;-84
2022/09/08 12:48:06;;;;;;;901.10;829.22;;;;;;;;;;16889901;29;20211;-84
2022/09/08 12:56:45;;;;;;;890.70;819.53;;;;;;;;;;16889109;28;20237;-84
2022/09/08 13:05:05;;;;;;;897.40;826.15;;;;;;;;;;16889139;28;20205;-84
2022/09/08 13:13:37;;;;;;;897.97;826.78;;;;;;;;;;16887574;29;20652;-84
2022/09/08 13:22:03;;;;;;;900.35;829.10;;;;;;;;;;16886665;29;20235;-84
2022/09/08 13:30:29;;;;;;;871.63;802.83;;;;;;;;;;16888350;29;20173;-84
2022/09/08 13:38:58;;;;;;;866.10;797.92;;;;;;;;;;16885775;28;20217;-84
2022/09/08 13:47:34;;;;;;;909.92;838.85;;;;;;;;;;16884273;28;20568;-83
2022/09/08 13:56:13;;;;;;;909.90;838.85;;;;;;;;;;16884562;28;20245;-84
2022/09/08 14:04:39;;;;;;;889.70;819.92;;;;;;;;;;16885206;28;20209;-84
2022/09/08 14:13:14;;;;;;;861.05;793.67;;;;;;;;;;16884805;28;20184;-84
2022/09/08 14:21:48;;;;;;;898.50;827.88;;;;;;;;;;16878479;29;20308;-84
2022/09/08 14:30:14;;;;;;;897.83;827.97;;;;;;;;;;16879946;29;20217;-84
2022/09/08 14:38:37;;;;;;;919.97;848.92;;;;;;;;;;16879487;28;20193;-84
2022/09/08 14:47:00;;;;;;;913.35;842.60;;;;;;;;;;16880991;28;20263;-85
2022/09/08 14:55:28;;;;;;;902.67;833.00;;;;;;;;;;16884608;28;20268;-84
2022/09/08 15:03:55;;;;;;;882.45;814.42;;;;;;;;;;16886488;29;20686;-84
2022/09/08 15:12:25;;;;;;;926.55;855.80;;;;;;;;;;16895674;29;20235;-84
2022/09/08 15:21:05;;;;;;;884.17;816.65;;;;;;;;;;16893541;29;20213;-84
2022/09/08 15:29:34;;;;;;;953.42;881.30;;;;;;;;;;16891958;28;20252;-85
2022/09/08 15:38:03;;;;;;;881.05;814.22;;;;;;;;;;16893111;28;20201;-84
2022/09/08 15:46:24;;;;;;;984.80;911.53;;;;;;;;;;16892917;29;20193;-85
2022/09/08 15:54:53;;;;;;;926.80;858.00;;;;;;;;;;16892141;28;20232;-85
2022/09/08 16:03:13;;;;;;;963.50;893.07;;;;;;;;;;16892963;29;20251;-85
2022/09/08 16:11:33;;;;;;;941.97;873.13;;;;;;;;;;16890810;28;20189;-85
2022/09/08 16:20:12;;;;;;;958.67;889.10;;;;;;;;;;16890117;28;20181;-86
2022/09/08 16:28:44;;;;;;;974.27;903.83;;;;;;;;;;16890134;28;20595;-85
2022/09/08 16:37:09;;;;;;;988.77;917.40;;;;;;;;;;16887732;29;20188;-85
2022/09/08 16:45:36;;;;;;;971.60;902.03;;;;;;;;;;16887630;29;20207;-86
2022/09/08 16:54:02;;;;;;;984.80;914.13;;;;;;;;;;16885683;29;20564;-86
2022/09/08 17:02:25;;;;;;;1007.97;935.00;;;;;;;;;;16883266;28;20757;-86
2022/09/08 17:10:50;;;;;;;975.00;905.03;;;;;;;;;;16885448;28;20613;-87
2022/09/08 17:19:14;;;;;;;1001.63;928.93;;;;;;;;;;16886635;29;20215;-87
2022/09/08 17:27:37;;;;;;;978.37;907.17;;;;;;;;;;16882497;28;20280;-87
2022/09/08 17:36:17;;;;;;;947.03;879.30;;;;;;;;;;16880803;28;20177;-88
2022/09/08 17:44:41;;;;;;;979.40;908.90;;;;;;;;;;16881005;28;20209;-88
2022/09/08 17:53:14;;;;;;;978.07;906.53;;;;;;;;;;16881155;29;20244;-87
2022/09/08 18:01:52;;;;;;;974.13;903.07;;;;;;;;;;16882473;28;20751;-88
2022/09/08 18:10:37;;;;;;;977.37;905.80;;;;;;;;;;16887089;29;20606;-88
2022/09/08 18:19:02;;;;;;;990.70;917.03;;;;;;;;;;16886468;29;20636;-88
2022/09/08 18:27:41;;;;;;;988.53;915.93;;;;;;;;;;16884651;28;20572;-88
2022/09/08 18:36:13;;;;;;;982.87;910.20;;;;;;;;;;16881892;29;20174;-87
2022/09/08 18:44:38;;;;;;;987.00;913.20;;;;;;;;;;16891797;29;20657;-88
2022/09/08 18:53:26;;;;;;;982.63;909.37;;;;;;;;;;16894721;28;20193;-89
2022/09/08 19:01:49;;;;;;;974.20;902.93;;;;;;;;;;16894378;28;20249;-88
2022/09/08 19:10:28;;;;;;;971.27;899.37;;;;;;;;;;16895778;28;20177;-87
2022/09/08 19:18:49;;;;;;;959.87;887.63;;;;;;;;;;16893722;28;20174;-87
2022/09/08 19:27:29;;;;;;;972.83;900.93;;;;;;;;;;16894235;28;20675;-87
2022/09/08 19:36:06;;;;;;;973.00;899.90;;;;;;;;;;16891912;29;20622;-87
2022/09/08 19:44:31;;;;;;;971.00;898.03;;;;;;;;;;16892513;29;20654;-87
2022/09/08 19:53:09;;;;;;;953.33;882.27;;;;;;;;;;16890086;28;20291;-88
2022/09/08 20:01:37;;;;;;;948.20;877.93;;;;;;;;;;16892399;28;20240;-87
